createdAt,value
2018-10-16T00:15:10.981Z,94410.78
2018-10-16T00:30:44.152Z,94411.81
2018-10-16T00:46:17.697Z,94417.91
2018-10-16T01:01:51.427Z,94415.48
2018-10-16T01:17:25.118Z,94398.23
2018-10-16T01:32:59.226Z,94386.86
2018-10-16T01:48:32.131Z,94387.78
2018-10-16T02:04:06.068Z,94395.96
2018-10-16T06:02:49.939Z,94409.20
2018-10-16T06:18:24.617Z,94412.30
2018-10-16T06:34:06.600Z,94407.09
2018-10-16T06:49:40.073Z,94416.66
2018-10-16T07:05:13.641Z,94427.84
2018-10-16T07:20:46.310Z,94423.20
2018-10-16T07:36:20.279Z,94419.86
2018-10-16T07:51:53.045Z,94420.67
2018-10-16T08:07:27.006Z,94411.34
2018-10-16T08:23:00.455Z,94415.48
2018-10-16T08:38:50.467Z,94407.16
2018-10-16T08:54:24.357Z,94395.22
2018-10-16T09:09:57.990Z,94394.69
2018-10-16T09:25:31.323Z,94388.31
2018-10-16T09:41:05.205Z,94372.55
2018-10-16T09:56:38.244Z,94354.53
2018-10-16T10:12:11.291Z,94344.87
2018-10-16T10:27:45.930Z,94312.89
2018-10-16T10:43:20.815Z,94307.41
2018-10-16T10:58:54.596Z,94301.59
2018-10-16T11:14:28.486Z,94291.70
2018-10-16T11:30:02.449Z,94292.56
2018-10-16T11:45:36.778Z,94280.45
2018-10-16T12:01:10.530Z,94263.91
2018-10-16T12:16:49.080Z,94259.23
2018-10-16T12:32:22.952Z,94253.56
2018-10-16T12:47:57.808Z,94250.66
2018-10-16T13:03:31.179Z,94245.06
2018-10-16T13:19:05.419Z,94250.94
2018-10-16T13:34:40.323Z,94238.58
2018-10-16T13:50:13.948Z,94237.97
2018-10-16T14:05:46.971Z,94239.23
2018-10-16T14:21:20.302Z,94244.83
2018-10-16T14:36:53.152Z,94249.77
2018-10-16T14:52:26.155Z,94265.53
2018-10-16T15:08:00.755Z,94284.31
2018-10-16T15:23:35.472Z,94301.21
2018-10-16T15:39:08.824Z,94313.06
2018-10-16T15:54:41.842Z,94326.78
2018-10-16T16:10:14.689Z,94338.78
2018-10-16T16:25:47.667Z,94347.55
2018-10-16T16:41:20.591Z,94342.52
2018-10-16T16:56:54.452Z,94350.23
2018-10-16T17:12:27.437Z,94369.33
2018-10-16T17:28:01.044Z,94363.23
2018-10-16T17:43:34.826Z,94364.85
2018-10-16T17:59:08.711Z,94361.08
2018-10-16T18:14:42.848Z,94379.14
2018-10-16T18:30:17.608Z,94390.31
2018-10-16T18:45:51.394Z,94395.21
2018-10-16T19:01:26.039Z,94403.86
2018-10-16T19:17:00.097Z,94401.43
2018-10-16T19:32:34.100Z,94401.27
2018-10-16T19:48:08.780Z,94406.41
2018-10-16T20:03:43.177Z,94402.33
2018-10-16T20:19:16.906Z,94399.60
2018-10-16T20:34:51.615Z,94401.59
2018-10-16T20:50:25.670Z,94398.88
2018-10-16T21:05:59.504Z,94407.16
2018-10-16T21:21:33.789Z,94389.33
2018-10-16T21:37:07.695Z,94390.10
2018-10-16T21:52:42.306Z,94387.20
2018-10-16T22:08:15.186Z,94378.08
2018-10-16T22:23:48.156Z,94367.95
2018-10-16T22:39:23.651Z,94362.06
2018-10-16T22:54:58.565Z,94368.05
2018-10-16T23:10:32.253Z,94362.20
2018-10-16T23:26:05.103Z,94351.58
2018-10-16T23:41:40.150Z,94356.16
2018-10-16T23:57:13.405Z,94344.33
